Zeynalabdin Tagiyev — 9HLD8 — position and weather

sailwx.info

Track history (hours):
 
Tides and Currents Weather Stations Pressure Air Temp Water Temp Dewpoint Dewpoint Depression Visibility Wind Speed Wind Dir Waves Ship Positions

Zeynalabdin Tagiyev

Last reported at 2017-Jul-21 08:28 UTC. Time now 2017-Jul-21 08:36 UTC.
Position N 46°35' E 031°03'.

Length 140 m; draft 3.6 m.

Type: Cargo ship. MMSI: 256107000.

Date/timePositionNaut miles runAvg speedWind from/ knotsBaromVisibWave heightAir tempDewpointWater temp
2017-Jul-21 08:28N 46°35' E 031°03'0 0.0
2017-Jul-21 07:59N 46°35' E 031°03'0 0.0
2017-Jul-21 07:27N 46°35' E 031°03'0 0.0
2017-Jul-21 06:55N 46°35' E 031°03'  
2017-Jul-13 12:05N 35°53' E 015°29'15 8.4
2017-Jul-13 10:18N 35°51' E 015°11'2 8.5
2017-Jul-13 10:00N 35°51' E 015°08'8 8.6
2017-Jul-13 09:06N 35°51' E 014°58'1 8.8
2017-Jul-13 09:00N 35°51' E 014°57'4 8.8
2017-Jul-13 08:30N 35°50' E 014°51'4 9.0
2017-Jul-13 08:00N 35°50' E 014°46'6 8.8
2017-Jul-13 07:17N 35°49' E 014°38'3 1.1
2017-Jul-13 04:53N 35°49' E 014°35'0 0.0
2017-Jul-13 04:29N 35°49' E 014°35'0 0.0
2017-Jul-13 04:00N 35°49' E 014°35'0 0.0
2017-Jul-13 03:19N 35°49' E 014°35'0 0.0
2017-Jul-13 03:00N 35°49' E 014°35'0 0.1
2017-Jul-13 01:56N 35°49' E 014°35'1 0.1
2017-Jul-12 16:46N 35°49' E 014°36'1 5.3
2017-Jul-12 16:30N 35°49' E 014°38'3 6.3
2017-Jul-12 16:00N 35°49' E 014°42'3 6.1
2017-Jul-12 15:30N 35°52' E 014°43'3 6.4
2017-Jul-12 15:00N 35°54' E 014°46'3 1.1
2017-Jul-12 12:07N 35°56' E 014°50'0 0.0
2017-Jul-12 11:13N 35°56' E 014°50'0 0.1
2017-Jul-12 10:59N 35°56' E 014°50'0 0.0
2017-Jul-12 10:23N 35°56' E 014°50'0 0.0
2017-Jul-12 09:51N 35°56' E 014°50'0 0.0
2017-Jul-12 09:09N 35°56' E 014°50'0 0.1
2017-Jul-12 09:00N 35°56' E 014°50'0 0.0
2017-Jul-12 08:18N 35°56' E 014°50'0 0.0
2017-Jul-12 07:57N 35°56' E 014°50'0 0.0
2017-Jul-12 07:30N 35°56' E 014°50'0 0.0
2017-Jul-12 06:58N 35°56' E 014°50'0 0.0
2017-Jul-12 06:07N 35°56' E 014°50'0 0.0
2017-Jul-12 05:55N 35°56' E 014°50'0 0.0
2017-Jul-12 05:26N 35°56' E 014°50'0 0.0
2017-Jul-12 04:53N 35°56' E 014°50'0 0.0
2017-Jul-12 04:29N 35°56' E 014°50'0 0.0
2017-Jul-12 04:00N 35°56' E 014°50'0 0.0
2017-Jul-12 03:26N 35°56' E 014°50'0 0.0
2017-Jul-12 02:52N 35°56' E 014°50'0 0.0
2017-Jul-12 02:29N 35°56' E 014°50'0 0.0
2017-Jul-12 01:59N 35°56' E 014°50'0 0.0
2017-Jul-12 01:28N 35°56' E 014°50'0 0.0
2017-Jul-12 01:00N 35°56' E 014°50'0 0.0
2017-Jul-12 00:30N 35°56' E 014°50'0 0.1
2017-Jul-11 23:58N 35°56' E 014°50'0 0.0
2017-Jul-11 23:27N 35°56' E 014°50'0 0.0
2017-Jul-11 22:57N 35°56' E 014°50'0 0.1
2017-Jul-11 22:30N 35°56' E 014°50'0 0.0
2017-Jul-11 21:58N 35°56' E 014°50'0 0.1
2017-Jul-11 21:28N 35°56' E 014°50'0 0.1
2017-Jul-11 20:56N 35°56' E 014°50'0 0.1
2017-Jul-11 20:30N 35°56' E 014°50'0 0.1
2017-Jul-11 20:00N 35°56' E 014°50'0 0.0
2017-Jul-11 19:25N 35°56' E 014°50'0 0.0
2017-Jul-11 18:56N 35°56' E 014°50'0 0.0
2017-Jul-11 18:30N 35°56' E 014°50'0 0.0
2017-Jul-11 18:00N 35°56' E 014°50'0 0.0
2017-Jul-11 17:29N 35°56' E 014°50'0 0.0
2017-Jul-11 16:56N 35°56' E 014°50'0 0.0
2017-Jul-11 16:29N 35°56' E 014°50'0 0.0
2017-Jul-11 15:59N 35°56' E 014°50'0 0.0
2017-Jul-11 15:25N 35°56' E 014°50'0 0.0
2017-Jul-11 15:00N 35°56' E 014°50'0 0.0
2017-Jul-11 14:24N 35°56' E 014°50'0 0.0
2017-Jul-11 14:00N 35°56' E 014°50'0 0.0
2017-Jul-11 13:28N 35°56' E 014°50'0 0.1
2017-Jul-11 12:59N 35°56' E 014°50'0 0.1
2017-Jul-11 12:23N 35°56' E 014°50'0 0.0
2017-Jul-11 11:58N 35°56' E 014°50'0 0.0
2017-Jul-11 11:28N 35°56' E 014°50'0 0.0
2017-Jul-11 10:59N 35°56' E 014°50'0 0.0
2017-Jul-11 10:29N 35°56' E 014°50'0 0.0
2017-Jul-11 10:00N 35°56' E 014°50'0 0.0
2017-Jul-11 09:26N 35°56' E 014°50'0 0.0
2017-Jul-11 08:54N 35°56' E 014°50'0 0.0
2017-Jul-11 08:30N 35°56' E 014°50'  
Track history (hours):
 
Tides and Currents Weather Stations Pressure Air Temp Water Temp Dewpoint Dewpoint Depression Visibility Wind Speed Wind Dir Waves Ship Positions

Zeynalabdin Tagiyev

Last reported at 2017-Jul-21 08:28 UTC. Time now 2017-Jul-21 08:36 UTC.
Position N 46°35' E 031°03'.

Length 140 m; draft 3.6 m.

Type: Cargo ship. MMSI: 256107000.

Date/timePositionNaut miles runAvg speedWind from/ knotsBaromVisibWave heightAir tempDewpointWater temp
2017-Jul-21 08:28N 46°35' E 031°03'0 0.0
2017-Jul-21 07:59N 46°35' E 031°03'0 0.0
2017-Jul-21 07:27N 46°35' E 031°03'0 0.0
2017-Jul-21 06:55N 46°35' E 031°03'  
2017-Jul-13 12:05N 35°53' E 015°29'15 8.4
2017-Jul-13 10:18N 35°51' E 015°11'2 8.5
2017-Jul-13 10:00N 35°51' E 015°08'8 8.6
2017-Jul-13 09:06N 35°51' E 014°58'1 8.8
2017-Jul-13 09:00N 35°51' E 014°57'4 8.8
2017-Jul-13 08:30N 35°50' E 014°51'4 9.0
2017-Jul-13 08:00N 35°50' E 014°46'6 8.8
2017-Jul-13 07:17N 35°49' E 014°38'3 1.1
2017-Jul-13 04:53N 35°49' E 014°35'0 0.0
2017-Jul-13 04:29N 35°49' E 014°35'0 0.0
2017-Jul-13 04:00N 35°49' E 014°35'0 0.0
2017-Jul-13 03:19N 35°49' E 014°35'0 0.0
2017-Jul-13 03:00N 35°49' E 014°35'0 0.1
2017-Jul-13 01:56N 35°49' E 014°35'1 0.1
2017-Jul-12 16:46N 35°49' E 014°36'1 5.3
2017-Jul-12 16:30N 35°49' E 014°38'3 6.3
2017-Jul-12 16:00N 35°49' E 014°42'3 6.1
2017-Jul-12 15:30N 35°52' E 014°43'3 6.4
2017-Jul-12 15:00N 35°54' E 014°46'3 1.1
2017-Jul-12 12:07N 35°56' E 014°50'0 0.0
2017-Jul-12 11:13N 35°56' E 014°50'0 0.1
2017-Jul-12 10:59N 35°56' E 014°50'0 0.0
2017-Jul-12 10:23N 35°56' E 014°50'0 0.0
2017-Jul-12 09:51N 35°56' E 014°50'0 0.0
2017-Jul-12 09:09N 35°56' E 014°50'0 0.1
2017-Jul-12 09:00N 35°56' E 014°50'0 0.0
2017-Jul-12 08:18N 35°56' E 014°50'0 0.0
2017-Jul-12 07:57N 35°56' E 014°50'0 0.0
2017-Jul-12 07:30N 35°56' E 014°50'0 0.0
2017-Jul-12 06:58N 35°56' E 014°50'0 0.0
2017-Jul-12 06:07N 35°56' E 014°50'0 0.0
2017-Jul-12 05:55N 35°56' E 014°50'0 0.0
2017-Jul-12 05:26N 35°56' E 014°50'0 0.0
2017-Jul-12 04:53N 35°56' E 014°50'0 0.0
2017-Jul-12 04:29N 35°56' E 014°50'0 0.0
2017-Jul-12 04:00N 35°56' E 014°50'0 0.0
2017-Jul-12 03:26N 35°56' E 014°50'0 0.0
2017-Jul-12 02:52N 35°56' E 014°50'0 0.0
2017-Jul-12 02:29N 35°56' E 014°50'0 0.0
2017-Jul-12 01:59N 35°56' E 014°50'0 0.0
2017-Jul-12 01:28N 35°56' E 014°50'0 0.0
2017-Jul-12 01:00N 35°56' E 014°50'0 0.0
2017-Jul-12 00:30N 35°56' E 014°50'0 0.1
2017-Jul-11 23:58N 35°56' E 014°50'0 0.0
2017-Jul-11 23:27N 35°56' E 014°50'0 0.0
2017-Jul-11 22:57N 35°56' E 014°50'0 0.1
2017-Jul-11 22:30N 35°56' E 014°50'0 0.0
2017-Jul-11 21:58N 35°56' E 014°50'0 0.1
2017-Jul-11 21:28N 35°56' E 014°50'0 0.1
2017-Jul-11 20:56N 35°56' E 014°50'0 0.1
2017-Jul-11 20:30N 35°56' E 014°50'0 0.1
2017-Jul-11 20:00N 35°56' E 014°50'0 0.0
2017-Jul-11 19:25N 35°56' E 014°50'0 0.0
2017-Jul-11 18:56N 35°56' E 014°50'0 0.0
2017-Jul-11 18:30N 35°56' E 014°50'0 0.0
2017-Jul-11 18:00N 35°56' E 014°50'0 0.0
2017-Jul-11 17:29N 35°56' E 014°50'0 0.0
2017-Jul-11 16:56N 35°56' E 014°50'0 0.0
2017-Jul-11 16:29N 35°56' E 014°50'0 0.0
2017-Jul-11 15:59N 35°56' E 014°50'0 0.0
2017-Jul-11 15:25N 35°56' E 014°50'0 0.0
2017-Jul-11 15:00N 35°56' E 014°50'0 0.0
2017-Jul-11 14:24N 35°56' E 014°50'0 0.0
2017-Jul-11 14:00N 35°56' E 014°50'0 0.0
2017-Jul-11 13:28N 35°56' E 014°50'0 0.1
2017-Jul-11 12:59N 35°56' E 014°50'0 0.1
2017-Jul-11 12:23N 35°56' E 014°50'0 0.0
2017-Jul-11 11:58N 35°56' E 014°50'0 0.0
2017-Jul-11 11:28N 35°56' E 014°50'0 0.0
2017-Jul-11 10:59N 35°56' E 014°50'0 0.0
2017-Jul-11 10:29N 35°56' E 014°50'0 0.0
2017-Jul-11 10:00N 35°56' E 014°50'0 0.0
2017-Jul-11 09:26N 35°56' E 014°50'0 0.0
2017-Jul-11 08:54N 35°56' E 014°50'0 0.0
2017-Jul-11 08:30N 35°56' E 014°50'  

Dump ship's entire track history